Weather reports worldwide

Advertisment
Puerto Leitariegos, Spain (8052): temperature & dewpoint: 14.08.2019 06:00:00 - 20.08.2019 06:00:00 (CEST)Puerto Leitariegos, Spain (8052): wind speed & gusts: 14.08.2019 06:00:00 - 20.08.2019 06:00:00 (CEST)Puerto Leitariegos, Spain (8052): wind direction: 14.08.2019 06:00:00 - 20.08.2019 06:00:00 (CEST)Puerto Leitariegos, Spain (8052): visibility: 14.08.2019 06:00:00 - 20.08.2019 06:00:00 (CEST)Puerto Leitariegos, Spain (8052): sunshine duration: 14.08.2019 06:00:00 - 20.08.2019 06:00:00 (CEST)Puerto Leitariegos, Spain (8052): precipitation: 14.08.2019 06:00:00 - 20.08.2019 06:00:00 (CEST)
Date & Time tt [°C] td [°C] ff [km/h] ff [kn] fx [km/h] fx [kn] dd vv [km] sd [min] rr [mm]
20.08.2019 06:00:00 - - - - - - - - - -
20.08.2019 05:00:00 6,3 5,6 6 3 12 6 NNW - 0 0,0
20.08.2019 04:00:00 - - - - - - - - - -
20.08.2019 03:00:00 7,0 6,2 8 5 14 8 NNW 0,1 0 0,0
20.08.2019 02:00:00 - - - - - - - - - -
20.08.2019 01:00:00 - - - - - - - - - -
20.08.2019 00:00:00 7,8 7,1 6 4 14 8 WNW 0,2 0 0,0
19.08.2019 23:00:00 7,7 7,1 12 7 16 9 WNW 0,9 0 0,0
19.08.2019 22:00:00 - - - - - - - - - -
19.08.2019 21:00:00 8,2 7,4 12 7 20 11 WNW 0,7 0 0,0
19.08.2019 20:00:00 8,6 7,8 14 7 23 12 WNW 0,1 0 -
19.08.2019 19:00:00 - - - - - - - - - -
19.08.2019 18:00:00 9,9 8,5 19 10 - - NW 4,7 3 0,0
19.08.2019 17:00:00 12,5 9,2 22 12 32 17 NW 20 58 0,0
19.08.2019 16:00:00 13,8 9,8 19 10 29 16 NW 20 52 0,0
19.08.2019 15:00:00 12,5 9,3 17 9 - - NW 19 50 0,0
19.08.2019 14:00:00 12,9 9,7 16 9 25 13 NW 20 60 -
19.08.2019 13:00:00 - - - - - - - - - -
19.08.2019 12:00:00 10,7 8,1 15 8 22 12 NNW 20 60 0,0
19.08.2019 11:00:00 9,7 6,8 6 3 14 8 N 20 59 0,0
19.08.2019 10:00:00 - - - - - - - - - -
19.08.2019 09:00:00 5,9 4,5 1 1 9 5 SE 20 1 0,0
19.08.2019 08:00:00 4,9 3,6 6 4 11 6 WNW 20 0 -
19.08.2019 07:00:00 4,9 3,4 6 3 10 6 SSE 20 0 0,0
19.08.2019 06:00:00 - - - - - - - - - -
19.08.2019 05:00:00 6,2 5,1 6 3 21 11 NW 20 0 0,0
19.08.2019 04:00:00 6,2 5,3 12 6 19 10 NW 20 0 0,0
19.08.2019 03:00:00 6,3 5,8 13 7 22 12 NW 7 0 0,0
19.08.2019 02:00:00 - - - - - - - - - -
19.08.2019 01:00:00 7,0 6,2 13 7 16 9 NW 0,2 0 0,0
19.08.2019 00:00:00 - - - - - - - - - -
18.08.2019 23:00:00 8,0 7,3 11 6 19 11 NW 0,5 0 0,0
18.08.2019 22:00:00 - - - - - - - - - -
18.08.2019 21:00:00 9,4 8,8 15 8 26 14 NW - 0 0,0
18.08.2019 20:00:00 - - - - - - - - - -
18.08.2019 19:00:00 11,0 10,0 15 8 22 12 NW 0,2 0 0,0
18.08.2019 18:00:00 - - - - - - - - - -
18.08.2019 17:00:00 - - - - - - - - - -
18.08.2019 16:00:00 13,6 12,7 11 6 23 12 NNW - 25 0,0
18.08.2019 15:00:00 - - - - - - - - - -
18.08.2019 14:00:00 - - - - - - - - - -
18.08.2019 13:00:00 11,9 11,1 15 8 28 15 NW 0,3 0 2,8
18.08.2019 12:00:00 11,6 10,9 16 9 24 13 NW 0,6 0 1,2
18.08.2019 11:00:00 13,7 12,7 9 5 17 9 NNW 1,0 0 0,6
18.08.2019 10:00:00 14,1 13,0 9 5 - - NNW 0,4 10 0,0
18.08.2019 09:00:00 13,8 12,2 - - - - - 18 0 0,0
18.08.2019 08:00:00 13,0 9,8 5 3 41 22 ESE 17 0 -
18.08.2019 07:00:00 12,5 8,3 10 6 41 22 SSE 20 0 0,0
18.08.2019 06:00:00 - - - - - - - - - -
18.08.2019 05:00:00 13,2 6,7 10 5 31 17 SSE 20 0 0,0
18.08.2019 04:00:00 13,8 5,1 7 4 19 10 NE 20 0 0,0
18.08.2019 03:00:00 - - - - - - - - - -
18.08.2019 02:00:00 14,5 5,3 5 3 31 17 SSE 20 0 -
18.08.2019 01:00:00 15,4 7,1 16 9 35 19 SE 20 0 0,0
18.08.2019 00:00:00 14,7 7,7 5 3 18 10 E 20 0 0,0
17.08.2019 23:00:00 14,7 8,4 5 3 17 9 WNW 20 0 0,0
17.08.2019 22:00:00 16,2 9,2 8 4 38 20 WNW 20 0 0,0
17.08.2019 21:00:00 18,3 8,0 16 8 29 16 NNW 20 14 0,0
17.08.2019 20:00:00 21,1 8,7 16 8 31 17 NNW 20 60 -
17.08.2019 19:00:00 22,4 9,2 13 7 32 17 NNW 20 60 0,0
17.08.2019 18:00:00 23,0 7,6 17 9 40 22 NW 20 59 0,0
17.08.2019 17:00:00 22,7 11,4 15 8 29 16 N 20 42 0,0
17.08.2019 16:00:00 22,2 11,0 9 5 28 15 N 20 42 0,0
17.08.2019 15:00:00 23,4 11,8 8 4 32 17 N 20 60 0,0
17.08.2019 14:00:00 22,8 10,5 11 6 27 15 SE 20 60 -
17.08.2019 13:00:00 21,7 10,5 5 3 26 14 NE 20 60 0,0
17.08.2019 12:00:00 20,9 10,6 10 5 23 12 ESE 20 60 0,0
17.08.2019 11:00:00 20,1 9,7 8 4 29 16 ESE 20 60 0,0
17.08.2019 10:00:00 18,3 8,0 7 4 29 16 E 20 60 0,0
17.08.2019 09:00:00 16,2 7,1 13 7 36 19 NW 20 22 0,0
17.08.2019 08:00:00 12,5 7,1 3 2 11 6 NW 20 0 -
17.08.2019 07:00:00 13,1 6,8 2 1 34 19 SE 20 0 0,0
17.08.2019 06:00:00 12,8 7,4 9 5 21 11 WNW 20 0 0,0
17.08.2019 05:00:00 11,7 7,6 4 2 11 6 S 20 0 0,0
17.08.2019 04:00:00 - - - - - - - - - -
17.08.2019 03:00:00 12,0 6,2 6 4 11 6 SSE 20 0 0,0
17.08.2019 02:00:00 12,0 3,8 3 2 12 6 SE 20 0 -
17.08.2019 01:00:00 12,9 3,0 10 6 15 8 NW 20 0 0,0
17.08.2019 00:00:00 - - - - - - - - - -
16.08.2019 23:00:00 - - - - - - - - - -
16.08.2019 22:00:00 14,7 8,7 10 5 14 8 NW 20 0 0,0
16.08.2019 21:00:00 17,6 8,9 8 4 19 11 WNW 20 10 0,0
16.08.2019 20:00:00 20,3 7,3 13 7 26 14 NW 20 60 -
16.08.2019 19:00:00 21,0 5,8 16 8 31 17 NW 20 60 0,0
16.08.2019 18:00:00 22,7 7,3 17 9 31 17 NW 20 60 0,0
16.08.2019 17:00:00 23,3 7,0 13 7 27 15 NNW 20 60 0,0
16.08.2019 16:00:00 23,2 7,3 14 8 26 14 N 20 60 0,0
16.08.2019 15:00:00 22,6 5,5 13 7 26 14 NNW 20 60 0,0
16.08.2019 14:00:00 22,8 7,7 8 5 26 14 NNW 20 60 -
16.08.2019 13:00:00 21,9 8,8 10 5 20 11 SE 20 60 0,0
16.08.2019 12:00:00 20,6 9,6 7 4 19 10 ESE 20 60 0,0
16.08.2019 11:00:00 18,8 10,9 10 5 17 9 SE 20 60 0,0
16.08.2019 10:00:00 16,4 10,3 7 4 10 5 ESE 18 60 0,0
16.08.2019 09:00:00 13,6 9,4 5 3 7 4 SE 20 23 0,0
16.08.2019 08:00:00 10,7 6,7 2 1 10 5 NE 20 0 -
16.08.2019 07:00:00 11,2 7,8 5 3 9 5 SSE 20 0 0,0
16.08.2019 06:00:00 11,3 7,8 6 3 7 4 SSE 20 0 0,0
16.08.2019 05:00:00 11,2 7,1 1 1 7 4 ENE 20 0 0,0
16.08.2019 04:00:00 11,5 8,1 3 2 10 5 SSW 20 0 0,0
16.08.2019 03:00:00 12,2 8,1 5 3 9 5 SSE 20 0 0,0
16.08.2019 02:00:00 - - - - - - - - - -
16.08.2019 01:00:00 12,3 7,8 6 3 13 7 SSE 20 0 0,0
16.08.2019 00:00:00 11,2 6,7 6 3 11 6 SSE 20 0 0,0
15.08.2019 23:00:00 - - - - - - - - - -
15.08.2019 22:00:00 12,2 11,0 13 7 21 12 NW 11 0 0,0
15.08.2019 21:00:00 - - - - - - - - - -
15.08.2019 20:00:00 16,3 12,4 17 9 30 16 NW 18 58 -
15.08.2019 19:00:00 17,0 12,5 22 12 34 18 NW 20 60 0,0
15.08.2019 18:00:00 - - - - - - - - - -
15.08.2019 17:00:00 - - - - - - - - - -
15.08.2019 16:00:00 19,3 12,3 13 7 26 14 NW 20 56 0,0
15.08.2019 15:00:00 19,4 11,9 14 7 25 14 NW 20 60 0,0
15.08.2019 14:00:00 18,9 11,7 16 8 22 12 NNW 20 60 -
15.08.2019 13:00:00 18,1 11,2 13 7 21 11 NNW 20 60 0,0
15.08.2019 12:00:00 18,0 11,6 13 7 23 12 NNW 20 60 0,0
15.08.2019 11:00:00 - - - - - - - - - -
15.08.2019 10:00:00 16,4 11,3 12 6 19 11 NNW 20 60 0,0
15.08.2019 09:00:00 13,0 3,6 10 5 13 7 NNW 20 24 0,0
15.08.2019 08:00:00 - - - - - - - - - -
15.08.2019 07:00:00 9,5 -3,6 5 3 11 6 NW 20 0 0,0
15.08.2019 06:00:00 9,5 -2,7 7 4 14 8 NW 20 0 0,0
15.08.2019 05:00:00 - - - - - - - - - -
15.08.2019 04:00:00 9,1 1,7 7 4 13 7 NW 20 0 0,0
15.08.2019 03:00:00 - - - - - - - - - -
15.08.2019 02:00:00 8,5 5,6 3 1 8 4 NW 20 0 -
15.08.2019 01:00:00 - - - - - - - - - -
15.08.2019 00:00:00 12,4 10,8 9 5 14 8 NNW 20 0 0,0
14.08.2019 23:00:00 - - - - - - - - - -
14.08.2019 22:00:00 14,6 12,6 8 4 18 10 NW 20 0 0,0
14.08.2019 21:00:00 16,1 12,8 10 5 26 14 NW 20 0 0,0
14.08.2019 20:00:00 - - - - - - - - - -
14.08.2019 19:00:00 17,7 13,7 14 8 30 16 NW 20 10 0,0
14.08.2019 18:00:00 17,7 13,5 15 8 31 17 NW 20 25 0,0
14.08.2019 17:00:00 18,4 13,3 16 9 29 16 WNW 20 33 0,0
14.08.2019 16:00:00 18,6 13,1 16 9 27 15 NNW 20 24 0,0
14.08.2019 15:00:00 19,3 13,5 13 7 26 14 NNW 20 12 0,0
14.08.2019 14:00:00 18,3 12,5 15 8 21 12 NNW 20 38 -
14.08.2019 13:00:00 17,9 11,9 13 7 22 12 NW 20 60 0,0
14.08.2019 12:00:00 17,7 10,8 11 6 16 9 NNW 20 58 0,0
14.08.2019 11:00:00 17,2 10,8 13 7 18 10 NW 20 60 0,0
14.08.2019 10:00:00 15,3 8,1 6 3 12 7 SE 20 51 0,0
14.08.2019 09:00:00 12,5 7,1 5 3 8 5 NW 20 13 0,0
14.08.2019 08:00:00 - - - - - - - - - -
14.08.2019 07:00:00 8,8 4,3 2 1 8 4 SW 20 0 0,0
14.08.2019 06:00:00 8,8 3,9 4 2 10 5 WNW 20 0 0,0

tt = temperature
td = dewpoint
ff = wind speed
fx = gusts
dd = wind direction
vv = visibility
sd = sunshine duration
rr = precipitation

Next stations